Time;durP1;ratioP1;P1;durP2;ratioP2;P2;SDS_P1;SDS_P2;PMS_P1;PMS_P2;Temp;Humidity;BMP_temperature;BMP_pressure;BME280_temperature;BME280_humidity;BME280_pressure;Samples;Min_cycle;Max_cycle;Signal;HPM_P1;HPM_P2
2023/01/11 00:02:10;;;;;;;3.60;3.40;;;8.00;99.90;;;;;;4995950;28;20212;-67
2023/01/11 00:04:35;;;;;;;4.10;3.90;;;8.00;99.90;;;;;;4996038;28;20207;-68
2023/01/11 00:07:01;;;;;;;3.70;3.50;;;8.00;99.90;;;;;;4995944;28;20645;-68
2023/01/11 00:09:27;;;;;;;3.60;3.40;;;8.00;99.90;;;;;;5010926;28;20216;-68
2023/01/11 00:11:54;;;;;;;4.00;3.60;;;8.00;99.90;;;;;;5010819;28;20212;-68
2023/01/11 00:14:20;;;;;;;3.60;3.40;;;8.10;99.90;;;;;;4995699;28;20200;-68
2023/01/11 00:16:46;;;;;;;3.93;3.70;;;8.00;99.90;;;;;;4995857;28;20518;-68
2023/01/11 00:19:12;;;;;;;4.00;3.60;;;8.00;99.90;;;;;;4995691;28;20544;-68
2023/01/11 00:21:38;;;;;;;3.43;3.23;;;8.10;99.90;;;;;;4995942;28;20200;-68
2023/01/11 00:24:04;;;;;;;3.90;3.60;;;8.00;99.90;;;;;;4995092;28;20251;-68
2023/01/11 00:26:30;;;;;;;3.70;3.50;;;8.10;99.90;;;;;;4995085;28;20173;-68
2023/01/11 00:28:55;;;;;;;3.80;3.50;;;8.00;99.90;;;;;;4995514;28;20240;-68
2023/01/11 00:31:21;;;;;;;3.50;3.30;;;8.10;99.90;;;;;;4995386;28;20212;-68
2023/01/11 00:33:47;;;;;;;3.80;3.60;;;8.10;99.90;;;;;;5010483;28;20563;-68
2023/01/11 00:36:13;;;;;;;4.50;3.90;;;8.10;99.90;;;;;;4995785;28;20215;-68
2023/01/11 00:38:52;;;;;;;3.57;3.40;;;8.10;99.90;;;;;;4995186;28;20582;-67
2023/01/11 00:49:33;;;;;;;3.80;3.60;;;8.10;99.90;;;;;;4995792;28;20240;-68
2023/01/11 00:52:00;;;;;;;3.70;3.50;;;8.20;99.90;;;;;;5010099;28;20283;-68
2023/01/11 00:54:26;;;;;;;3.60;3.40;;;8.20;99.90;;;;;;5010035;28;20208;-68
2023/01/11 00:56:52;;;;;;;3.77;3.57;;;8.30;99.90;;;;;;4994919;28;20544;-68
2023/01/11 00:59:18;;;;;;;3.60;3.40;;;8.30;99.90;;;;;;4995066;28;20165;-68
2023/01/11 01:01:43;;;;;;;3.50;3.40;;;8.30;99.90;;;;;;4994805;28;20196;-67
2023/01/11 01:04:09;;;;;;;4.33;3.37;;;8.30;99.90;;;;;;4995507;28;20263;-68
2023/01/11 01:06:35;;;;;;;3.50;3.30;;;8.30;99.90;;;;;;4994584;28;20251;-68
2023/01/11 01:09:01;;;;;;;3.60;3.40;;;8.30;99.90;;;;;;4994666;28;20256;-68
2023/01/11 01:11:26;;;;;;;3.50;3.20;;;8.20;99.90;;;;;;4993658;28;20196;-68
2023/01/11 01:16:36;;;;;;;3.70;3.40;;;8.20;99.90;;;;;;4994865;28;20171;-67
2023/01/11 01:19:03;;;;;;;3.50;3.30;;;8.20;99.90;;;;;;4994986;28;20538;-68
2023/01/11 01:21:28;;;;;;;3.50;3.30;;;8.30;99.90;;;;;;4994867;28;20196;-68
2023/01/11 01:23:54;;;;;;;3.40;3.20;;;8.30;99.90;;;;;;4994758;28;20235;-68
2023/01/11 01:26:20;;;;;;;3.73;3.43;;;8.30;99.90;;;;;;4994706;28;20180;-68
2023/01/11 01:28:46;;;;;;;3.47;3.27;;;8.30;99.90;;;;;;4996213;28;20185;-68
2023/01/11 01:31:12;;;;;;;3.50;3.30;;;8.30;99.90;;;;;;4997882;28;20215;-68
2023/01/11 01:33:38;;;;;;;3.63;3.43;;;8.40;99.90;;;;;;4996863;28;20231;-68
2023/01/11 01:36:05;;;;;;;3.80;3.60;;;8.40;99.90;;;;;;4996511;28;20227;-68
2023/01/11 01:38:30;;;;;;;3.73;3.50;;;8.40;99.90;;;;;;4997550;28;20259;-68
2023/01/11 01:40:56;;;;;;;3.80;3.50;;;8.50;99.90;;;;;;4997382;28;20216;-68
2023/01/11 01:43:42;;;;;;;4.53;3.57;;;8.50;99.90;;;;;;4995945;28;20191;-68
2023/01/11 01:46:08;;;;;;;3.53;3.33;;;8.50;99.90;;;;;;4995677;28;20180;-68
2023/01/11 01:48:36;;;;;;;3.40;3.20;;;8.60;99.90;;;;;;5010067;28;20181;-67
2023/01/11 01:51:05;;;;;;;4.40;3.40;;;8.60;99.90;;;;;;4994822;28;20211;-67
2023/01/11 01:53:39;;;;;;;3.40;3.20;;;8.60;99.90;;;;;;4994478;28;20187;-68
2023/01/11 01:56:22;;;;;;;3.20;3.10;;;8.50;99.90;;;;;;4994459;28;20196;-68
2023/01/11 01:58:53;;;;;;;3.40;3.30;;;8.50;99.90;;;;;;4994462;28;20251;-67
2023/01/11 02:04:10;;;;;;;3.20;3.10;;;8.50;99.90;;;;;;4994365;28;20168;-68
2023/01/11 02:06:36;;;;;;;3.30;3.10;;;8.50;99.90;;;;;;4994456;28;20161;-68
2023/01/11 02:09:07;;;;;;;3.17;2.97;;;8.50;99.90;;;;;;4994042;28;20176;-68
2023/01/11 02:11:33;;;;;;;3.97;3.50;;;8.50;99.90;;;;;;4994080;28;20271;-68
2023/01/11 02:14:05;;;;;;;3.20;3.10;;;8.50;99.90;;;;;;4993837;28;20172;-68
2023/01/11 02:16:30;;;;;;;3.47;3.30;;;8.50;99.90;;;;;;4994375;28;20172;-68
2023/01/11 02:18:58;;;;;;;3.33;3.20;;;8.60;99.90;;;;;;4993902;28;20185;-69
2023/01/11 02:21:30;;;;;;;3.37;3.27;;;8.60;99.90;;;;;;5009231;28;20204;-68
2023/01/11 02:23:58;;;;;;;3.70;3.50;;;8.60;99.90;;;;;;4994120;28;20612;-68
2023/01/11 02:26:29;;;;;;;3.20;3.10;;;8.60;99.90;;;;;;5008976;28;20184;-66
2023/01/11 02:29:16;;;;;;;3.70;3.50;;;8.70;99.90;;;;;;5008913;28;20185;-66
2023/01/11 02:32:04;;;;;;;3.20;3.10;;;8.70;99.90;;;;;;5008850;28;20239;-69
2023/01/11 02:35:00;;;;;;;3.60;3.40;;;8.70;99.90;;;;;;5009137;28;20572;-71
2023/01/11 02:37:31;;;;;;;3.40;3.30;;;8.70;99.90;;;;;;4994231;28;20164;-68
2023/01/11 02:40:09;;;;;;;3.30;3.20;;;8.80;99.90;;;;;;4994041;28;20745;-68
2023/01/11 02:46:16;;;;;;;3.37;3.20;;;8.90;99.90;;;;;;4994459;28;20272;-69
2023/01/11 02:49:03;;;;;;;3.50;3.30;;;8.80;99.90;;;;;;4982867;28;20576;-69
2023/01/11 02:51:49;;;;;;;3.37;3.17;;;8.90;99.90;;;;;;4997587;28;20222;-69
2023/01/11 02:54:18;;;;;;;3.27;3.10;;;8.90;99.90;;;;;;5012208;28;20207;-68
2023/01/11 02:56:47;;;;;;;3.10;3.00;;;8.90;99.90;;;;;;4996185;28;20564;-69
2023/01/11 02:59:18;;;;;;;3.50;3.30;;;8.90;99.90;;;;;;4995893;28;20176;-68
2023/01/11 03:01:50;;;;;;;3.40;3.20;;;8.90;99.90;;;;;;4997449;28;20661;-68
2023/01/11 03:04:26;;;;;;;3.43;3.23;;;8.90;99.90;;;;;;4997565;28;20160;-69
2023/01/11 03:07:03;;;;;;;3.50;3.20;;;8.90;99.90;;;;;;5012224;28;20272;-69
2023/01/11 03:10:09;;;;;;;3.33;3.13;;;8.90;99.90;;;;;;4997197;28;20169;-69
2023/01/11 03:12:58;;;;;;;3.30;3.10;;;8.90;99.90;;;;;;4997130;28;20279;-68
2023/01/11 03:15:44;;;;;;;3.30;3.20;;;9.00;99.90;;;;;;5012097;28;20224;-66
2023/01/11 03:18:31;;;;;;;3.10;3.00;;;8.90;99.90;;;;;;5012066;28;20169;-68
2023/01/11 03:21:23;;;;;;;3.17;3.00;;;8.90;99.90;;;;;;4997004;28;20265;-66
2023/01/11 03:24:04;;;;;;;3.07;2.97;;;8.90;99.90;;;;;;5001992;28;20188;-66
2023/01/11 03:26:48;;;;;;;3.20;3.10;;;8.90;99.90;;;;;;4996987;28;20651;-65
2023/01/11 03:29:26;;;;;;;3.00;2.90;;;8.90;99.90;;;;;;4996578;28;20168;-66
2023/01/11 03:32:02;;;;;;;2.90;2.80;;;8.90;99.90;;;;;;4996625;28;20287;-65
2023/01/11 03:34:31;;;;;;;3.00;2.90;;;8.90;99.90;;;;;;5011572;28;20200;-66
2023/01/11 03:37:09;;;;;;;3.00;2.90;;;8.90;99.90;;;;;;4996475;28;20232;-66
2023/01/11 03:39:51;;;;;;;3.20;3.10;;;8.90;99.90;;;;;;4996765;28;20208;-68
2023/01/11 03:42:19;;;;;;;3.10;2.90;;;9.00;99.90;;;;;;4996427;28;20192;-68
2023/01/11 03:44:51;;;;;;;3.30;3.20;;;9.00;99.90;;;;;;4996839;28;20602;-66
2023/01/11 03:47:20;;;;;;;3.10;3.00;;;9.00;99.90;;;;;;4997233;28;20165;-67
2023/01/11 03:50:04;;;;;;;2.83;2.73;;;9.00;99.90;;;;;;4996872;28;20173;-68
2023/01/11 03:52:37;;;;;;;3.17;3.07;;;9.00;99.90;;;;;;4996827;28;20192;-68
2023/01/11 03:55:06;;;;;;;3.00;2.90;;;9.00;99.90;;;;;;4996100;28;20189;-66
2023/01/11 03:57:40;;;;;;;3.40;3.13;;;9.00;99.90;;;;;;4995888;28;20173;-66
2023/01/11 04:00:07;;;;;;;3.00;2.90;;;9.00;99.90;;;;;;4996337;28;20598;-68
2023/01/11 04:02:39;;;;;;;2.97;2.87;;;9.00;99.90;;;;;;4995629;28;20627;-65
2023/01/11 04:05:06;;;;;;;3.20;3.10;;;9.00;99.90;;;;;;4996528;28;20168;-66
2023/01/11 04:07:32;;;;;;;2.97;2.87;;;9.00;99.90;;;;;;4995971;28;20604;-68
2023/01/11 04:09:57;;;;;;;3.00;2.90;;;9.10;99.90;;;;;;5010917;28;20271;-68
2023/01/11 04:12:24;;;;;;;3.00;2.90;;;9.10;99.90;;;;;;4995718;28;20204;-68
2023/01/11 04:14:51;;;;;;;3.07;2.97;;;9.10;99.90;;;;;;4995613;28;20231;-68
2023/01/11 04:17:17;;;;;;;3.00;2.90;;;9.00;99.90;;;;;;4995993;28;20171;-68
2023/01/11 04:19:43;;;;;;;3.00;2.90;;;9.00;99.90;;;;;;4995612;28;20231;-68
2023/01/11 04:22:08;;;;;;;3.20;3.00;;;8.90;99.90;;;;;;4995979;28;20196;-68
2023/01/11 04:24:34;;;;;;;4.10;3.00;;;8.90;99.90;;;;;;4995478;28;20176;-68
2023/01/11 04:27:00;;;;;;;3.07;2.90;;;8.90;99.90;;;;;;4995720;28;20187;-67
2023/01/11 04:29:25;;;;;;;3.03;2.93;;;8.80;99.90;;;;;;4995401;28;20185;-68
2023/01/11 04:31:51;;;;;;;3.30;3.20;;;8.80;99.90;;;;;;4995317;28;20215;-65
2023/01/11 04:34:17;;;;;;;3.00;2.90;;;8.80;99.90;;;;;;4995192;28;20671;-65
2023/01/11 04:36:43;;;;;;;3.00;2.90;;;8.80;99.90;;;;;;4995611;28;20173;-65
2023/01/11 04:39:09;;;;;;;3.10;2.90;;;8.80;99.90;;;;;;4995227;28;20168;-66
2023/01/11 04:44:21;;;;;;;3.20;3.00;;;8.70;99.90;;;;;;4995361;28;20207;-69
2023/01/11 04:46:46;;;;;;;3.10;2.90;;;8.70;99.90;;;;;;4995289;28;20185;-68
2023/01/11 04:49:12;;;;;;;3.10;3.00;;;8.70;99.90;;;;;;4995050;28;20176;-68
2023/01/11 04:51:38;;;;;;;3.00;2.90;;;8.70;99.90;;;;;;4993726;28;20200;-68
2023/01/11 04:54:04;;;;;;;3.20;3.00;;;8.70;99.90;;;;;;4995029;28;20177;-68
2023/01/11 04:56:30;;;;;;;2.93;2.83;;;8.70;99.90;;;;;;4995255;28;20200;-69
2023/01/11 04:58:56;;;;;;;3.30;3.00;;;8.70;99.90;;;;;;4995078;28;20168;-69
2023/01/11 05:01:21;;;;;;;3.10;2.90;;;8.60;99.90;;;;;;4995022;28;20214;-69
2023/01/11 05:03:47;;;;;;;3.00;2.90;;;8.60;99.90;;;;;;4995075;28;20169;-69
2023/01/11 05:06:14;;;;;;;3.10;3.00;;;8.60;99.90;;;;;;4995728;28;20235;-69
2023/01/11 05:08:44;;;;;;;2.90;2.80;;;8.60;99.90;;;;;;4993618;28;20184;-68
2023/01/11 05:11:10;;;;;;;3.30;3.00;;;8.70;99.90;;;;;;4994246;28;20533;-68
2023/01/11 05:13:41;;;;;;;3.20;3.10;;;8.70;99.90;;;;;;5009797;28;20247;-68
2023/01/11 05:16:22;;;;;;;3.00;2.80;;;8.70;99.90;;;;;;5009850;28;20291;-69
2023/01/11 05:18:48;;;;;;;3.17;3.00;;;8.70;99.90;;;;;;4994983;28;20215;-68
2023/01/11 05:21:16;;;;;;;3.20;3.10;;;8.70;99.90;;;;;;5009620;28;20197;-68
2023/01/11 05:23:42;;;;;;;3.00;2.90;;;8.70;99.90;;;;;;4994718;28;20173;-68
2023/01/11 05:26:22;;;;;;;2.93;2.83;;;8.70;99.90;;;;;;4994425;28;20179;-68
2023/01/11 05:28:49;;;;;;;3.00;2.90;;;8.70;99.90;;;;;;4994677;28;20161;-67
2023/01/11 05:31:15;;;;;;;3.27;3.07;;;8.80;99.90;;;;;;4994282;28;20340;-69
2023/01/11 05:33:42;;;;;;;2.90;2.80;;;8.80;99.90;;;;;;5009369;28;20418;-69
2023/01/11 05:36:15;;;;;;;3.00;2.90;;;8.80;99.90;;;;;;4994864;28;20189;-66
2023/01/11 05:38:41;;;;;;;3.20;3.10;;;8.80;99.90;;;;;;4994638;28;20176;-69
2023/01/11 05:41:09;;;;;;;2.90;2.80;;;8.80;99.90;;;;;;4994352;28;20279;-67
2023/01/11 05:46:21;;;;;;;3.00;2.90;;;8.90;99.90;;;;;;4994994;28;20255;-69
2023/01/11 05:48:47;;;;;;;2.90;2.80;;;8.90;99.90;;;;;;4994407;28;21316;-69
2023/01/11 05:51:12;;;;;;;3.00;2.90;;;8.90;99.90;;;;;;4994266;28;20208;-67
2023/01/11 05:53:38;;;;;;;3.37;2.80;;;9.00;99.90;;;;;;5009141;28;20267;-67
2023/01/11 05:56:04;;;;;;;3.27;3.07;;;8.90;99.90;;;;;;4994246;28;20548;-70
2023/01/11 05:58:30;;;;;;;3.00;2.90;;;8.90;99.90;;;;;;4992840;28;20176;-69
2023/01/11 06:00:56;;;;;;;3.00;2.90;;;8.90;99.90;;;;;;4994075;28;20251;-69
2023/01/11 06:03:25;;;;;;;3.10;3.00;;;9.00;99.90;;;;;;4994145;28;20176;-69
2023/01/11 06:05:52;;;;;;;3.10;3.00;;;9.00;99.90;;;;;;4994235;28;20188;-67
2023/01/11 06:08:18;;;;;;;3.30;3.10;;;9.00;99.90;;;;;;4993854;28;20641;-66
2023/01/11 06:10:51;;;;;;;3.10;2.90;;;9.00;99.90;;;;;;5009010;28;20188;-66
2023/01/11 06:13:26;;;;;;;3.20;3.00;;;9.00;99.90;;;;;;4992597;28;20168;-67
2023/01/11 06:16:01;;;;;;;3.10;3.00;;;9.00;99.90;;;;;;4993956;28;20279;-67
2023/01/11 06:18:31;;;;;;;3.20;3.10;;;9.00;99.90;;;;;;4994183;28;20172;-67
2023/01/11 06:20:58;;;;;;;3.30;3.10;;;9.00;99.90;;;;;;4994439;28;20231;-67
2023/01/11 06:23:24;;;;;;;3.10;2.80;;;8.90;99.90;;;;;;4995929;28;20188;-68
2023/01/11 06:25:50;;;;;;;3.00;2.90;;;8.90;99.90;;;;;;4997673;28;20210;-68
2023/01/11 06:28:16;;;;;;;4.03;2.80;;;9.00;99.90;;;;;;4998090;28;20177;-69
2023/01/11 06:30:42;;;;;;;3.03;2.93;;;9.00;99.90;;;;;;5013050;28;20184;-69
2023/01/11 06:33:08;;;;;;;3.37;3.17;;;9.00;99.90;;;;;;4998429;28;20202;-69
2023/01/11 06:35:40;;;;;;;3.20;3.00;;;8.90;99.90;;;;;;4998377;28;20298;-67
2023/01/11 06:38:08;;;;;;;3.20;3.00;;;9.00;99.90;;;;;;4997862;28;20291;-67
2023/01/11 06:40:35;;;;;;;3.00;2.90;;;9.00;99.90;;;;;;4998098;28;20176;-67
2023/01/11 06:43:01;;;;;;;3.00;2.80;;;9.00;99.90;;;;;;4996247;28;20219;-67
2023/01/11 06:45:27;;;;;;;3.40;3.10;;;9.00;99.90;;;;;;4997853;28;20183;-67
2023/01/11 06:47:53;;;;;;;2.93;2.83;;;9.00;99.90;;;;;;4997405;28;20176;-66
2023/01/11 06:50:19;;;;;;;2.90;2.80;;;9.00;99.90;;;;;;4997430;28;20521;-66
2023/01/11 06:52:58;;;;;;;2.90;2.80;;;9.10;99.90;;;;;;4997093;28;20321;-67
2023/01/11 06:55:26;;;;;;;3.20;3.00;;;9.00;99.90;;;;;;4997571;28;20552;-67
2023/01/11 06:57:52;;;;;;;3.20;3.00;;;9.00;99.90;;;;;;4997332;28;20235;-66
2023/01/11 07:00:19;;;;;;;3.10;3.00;;;9.10;99.90;;;;;;5012289;28;20552;-67
2023/01/11 07:02:45;;;;;;;3.17;2.97;;;9.00;99.90;;;;;;5013142;28;20200;-69
2023/01/11 07:05:12;;;;;;;3.10;2.90;;;9.00;99.90;;;;;;4997390;28;20708;-67
2023/01/11 07:07:38;;;;;;;3.30;3.10;;;9.10;99.90;;;;;;4996997;28;20216;-67
2023/01/11 07:10:08;;;;;;;3.00;2.90;;;9.10;99.90;;;;;;4997255;28;20157;-67
2023/01/11 07:12:34;;;;;;;2.90;2.80;;;9.10;99.90;;;;;;4996839;28;20197;-68
2023/01/11 07:15:00;;;;;;;3.17;3.07;;;9.10;99.90;;;;;;4996914;28;20246;-68
2023/01/11 07:17:26;;;;;;;3.37;3.17;;;9.10;99.90;;;;;;4996989;28;20172;-68
2023/01/11 07:19:51;;;;;;;3.50;3.30;;;9.10;99.90;;;;;;5012235;28;20183;-68
2023/01/11 07:22:17;;;;;;;3.27;3.07;;;9.10;99.90;;;;;;5012453;28;20197;-68
2023/01/11 07:24:43;;;;;;;3.20;3.10;;;9.10;99.90;;;;;;4997308;28;20203;-68
2023/01/11 07:27:09;;;;;;;3.00;2.90;;;9.10;99.90;;;;;;4997432;28;20259;-68
2023/01/11 07:29:34;;;;;;;3.30;3.10;;;9.10;99.90;;;;;;4997076;28;20172;-68
2023/01/11 07:32:00;;;;;;;3.00;2.90;;;9.10;99.90;;;;;;4996770;28;20201;-68
2023/01/11 07:34:26;;;;;;;3.50;3.30;;;9.20;99.90;;;;;;4996504;28;20246;-68
2023/01/11 07:36:51;;;;;;;3.27;3.07;;;9.20;99.90;;;;;;4996853;28;20177;-68
2023/01/11 07:39:17;;;;;;;3.77;3.20;;;9.20;99.90;;;;;;4996831;28;20570;-68
2023/01/11 07:44:27;;;;;;;3.40;3.20;;;9.30;99.90;;;;;;4996184;28;20750;-69
2023/01/11 07:46:53;;;;;;;3.00;2.90;;;9.30;99.90;;;;;;4995314;28;20260;-69
2023/01/11 07:49:18;;;;;;;3.43;3.23;;;9.30;99.90;;;;;;4996314;28;20215;-69
2023/01/11 07:51:44;;;;;;;3.60;3.40;;;9.30;99.90;;;;;;4997008;28;20247;-68
2023/01/11 07:54:12;;;;;;;3.93;3.63;;;9.30;99.90;;;;;;4996862;28;20169;-66
2023/01/11 07:56:38;;;;;;;3.63;3.43;;;9.30;99.90;;;;;;4994473;28;20209;-66
2023/01/11 07:59:05;;;;;;;3.80;3.60;;;9.30;99.90;;;;;;4995736;28;20168;-67
2023/01/11 08:01:30;;;;;;;3.60;3.40;;;9.30;99.90;;;;;;4995647;28;20200;-66
2023/01/11 08:03:56;;;;;;;3.90;3.60;;;9.30;99.90;;;;;;5011433;28;20188;-66
2023/01/11 08:06:22;;;;;;;3.80;3.50;;;9.30;99.90;;;;;;4996735;28;20172;-66
2023/01/11 08:08:47;;;;;;;3.97;3.47;;;9.30;99.90;;;;;;4996097;28;20213;-66
2023/01/11 08:16:41;;;;;;;3.87;3.57;;;9.40;99.90;;;;;;4996229;28;20175;-66
2023/01/11 08:19:07;;;;;;;4.30;4.00;;;9.50;99.90;;;;;;5011316;28;20550;-67
2023/01/11 08:21:33;;;;;;;4.00;3.70;;;9.50;99.90;;;;;;4995778;28;20196;-67
2023/01/11 08:23:59;;;;;;;4.07;3.67;;;9.50;99.90;;;;;;4996759;28;20200;-67
2023/01/11 08:26:26;;;;;;;4.30;3.90;;;9.50;99.90;;;;;;4996150;28;20611;-67
2023/01/11 08:28:53;;;;;;;4.07;3.77;;;9.50;99.90;;;;;;5011031;28;20258;-68
2023/01/11 08:31:19;;;;;;;4.83;4.50;;;9.50;99.90;;;;;;4995993;28;20280;-69
2023/01/11 08:33:45;;;;;;;5.30;4.80;;;9.50;99.90;;;;;;4994431;28;20191;-69
2023/01/11 08:36:12;;;;;;;5.13;4.73;;;9.50;99.90;;;;;;4995692;28;20201;-68
2023/01/11 08:38:38;;;;;;;6.03;5.43;;;9.50;99.90;;;;;;4995462;28;20176;-68
2023/01/11 08:41:11;;;;;;;6.13;5.53;;;9.60;99.90;;;;;;4995712;28;20189;-68
2023/01/11 08:43:37;;;;;;;8.17;6.70;;;9.70;99.90;;;;;;4995578;28;20293;-67
2023/01/11 08:46:03;;;;;;;7.63;6.40;;;9.70;99.90;;;;;;4994622;28;20176;-66
2023/01/11 08:48:29;;;;;;;8.73;6.40;;;9.70;99.90;;;;;;4995133;28;20668;-67
2023/01/11 08:50:55;;;;;;;9.53;6.23;;;9.70;99.90;;;;;;4995181;28;20231;-66
2023/01/11 08:53:20;;;;;;;10.73;6.60;;;9.70;99.90;;;;;;4994814;28;20276;-67
2023/01/11 08:55:50;;;;;;;8.30;7.07;;;9.70;99.90;;;;;;5010263;28;20204;-67
2023/01/11 08:58:16;;;;;;;8.40;6.50;;;9.80;99.90;;;;;;4994944;28;20542;-67
2023/01/11 09:00:42;;;;;;;9.27;6.37;;;9.70;99.90;;;;;;5009926;28;20188;-67
2023/01/11 09:03:10;;;;;;;7.07;6.17;;;9.70;99.90;;;;;;4995498;28;20231;-67
2023/01/11 09:05:37;;;;;;;8.03;6.87;;;9.70;99.90;;;;;;5010091;28;20212;-67
2023/01/11 09:08:03;;;;;;;9.20;7.00;;;9.70;99.90;;;;;;4995268;28;20177;-67
2023/01/11 09:10:29;;;;;;;11.53;7.03;;;9.80;99.90;;;;;;4994934;28;20180;-67
2023/01/11 09:12:55;;;;;;;9.87;8.67;;;9.70;99.90;;;;;;4993332;28;20266;-67
2023/01/11 09:15:23;;;;;;;14.33;9.60;;;9.80;99.90;;;;;;4994696;28;20211;-67
2023/01/11 09:17:49;;;;;;;11.43;8.93;;;9.80;99.90;;;;;;4993533;28;20267;-67
2023/01/11 09:20:15;;;;;;;16.90;10.23;;;9.80;99.90;;;;;;4994896;28;20252;-67
2023/01/11 09:22:45;;;;;;;12.30;9.70;;;9.90;99.90;;;;;;4994538;28;20196;-67
2023/01/11 09:25:11;;;;;;;13.23;10.00;;;9.90;99.90;;;;;;4993315;28;20176;-67
2023/01/11 09:27:36;;;;;;;15.43;10.50;;;9.90;99.90;;;;;;5009743;28;20195;-67
2023/01/11 09:30:03;;;;;;;17.67;10.80;;;9.90;99.90;;;;;;4994304;28;20180;-67
2023/01/11 09:32:28;;;;;;;13.70;10.43;;;10.00;99.90;;;;;;4994969;28;20267;-66
2023/01/11 09:34:56;;;;;;;16.17;11.67;;;10.00;99.90;;;;;;4994895;28;20283;-66
2023/01/11 09:37:23;;;;;;;16.77;11.60;;;10.00;99.90;;;;;;4994408;28;20180;-66
2023/01/11 09:39:50;;;;;;;14.13;11.03;;;10.00;99.90;;;;;;4994955;28;20168;-66
2023/01/11 09:42:22;;;;;;;18.60;11.68;;;10.00;99.90;;;;;;4994843;28;20195;-67
2023/01/11 09:44:59;;;;;;;17.53;12.53;;;10.00;99.90;;;;;;4994532;28;20193;-66
2023/01/11 09:47:41;;;;;;;23.03;13.77;;;10.00;99.90;;;;;;4994664;28;20219;-67
2023/01/11 09:50:17;;;;;;;19.63;12.83;;;9.90;99.90;;;;;;4993062;28;20263;-67
2023/01/11 09:52:50;;;;;;;25.87;16.63;;;9.90;99.90;;;;;;4992925;28;20207;-66
2023/01/11 09:55:24;;;;;;;28.27;15.33;;;9.90;99.90;;;;;;4993331;28;20620;-67
2023/01/11 09:58:28;;;;;;;21.17;11.00;;;9.90;99.90;;;;;;4997034;28;20172;-67
2023/01/11 10:01:12;;;;;;;21.20;10.17;;;9.80;99.90;;;;;;5000422;28;20184;-65
2023/01/11 10:03:57;;;;;;;22.50;9.43;;;9.70;99.90;;;;;;5015682;28;20180;-66
2023/01/11 10:06:47;;;;;;;18.77;8.52;;;9.70;99.90;;;;;;5000566;28;20165;-67
2023/01/11 10:09:40;;;;;;;18.13;8.40;;;9.60;99.90;;;;;;5000803;28;20506;-67
2023/01/11 10:12:30;;;;;;;22.77;8.80;;;9.60;99.90;;;;;;5000702;28;20216;-66
2023/01/11 10:14:56;;;;;;;12.80;7.53;;;9.60;99.90;;;;;;5000303;28;20661;-66
2023/01/11 10:17:43;;;;;;;18.50;9.70;;;9.60;99.90;;;;;;5000435;28;20172;-66
2023/01/11 10:20:11;;;;;;;21.17;8.37;;;9.50;99.90;;;;;;5000769;28;20169;-66
2023/01/11 10:22:45;;;;;;;17.03;8.20;;;9.50;99.90;;;;;;5015654;28;20211;-66
2023/01/11 10:25:20;;;;;;;30.00;8.10;;;9.50;99.90;;;;;;5000911;28;20669;-66
2023/01/11 10:28:28;;;;;;;15.67;7.13;;;9.50;99.90;;;;;;5000963;28;20675;-66
2023/01/11 10:40:02;;;;;;;26.27;10.30;;;9.40;99.90;;;;;;5001152;28;20172;-67
2023/01/11 10:43:02;;;;;;;22.57;10.70;;;9.50;99.90;;;;;;5000624;28;20275;-67
2023/01/11 10:45:49;;;;;;;24.63;10.73;;;9.40;99.90;;;;;;4998393;28;20691;-67
2023/01/11 10:48:45;;;;;;;29.70;11.13;;;9.40;99.90;;;;;;4999126;28;20168;-66
2023/01/11 10:51:16;;;;;;;25.17;11.27;;;9.40;99.90;;;;;;4995668;28;20243;-66
2023/01/11 10:54:02;;;;;;;20.93;11.77;;;9.40;99.90;;;;;;5000515;28;20729;-66
2023/01/11 10:56:46;;;;;;;32.50;12.57;;;9.40;99.90;;;;;;5000155;28;20200;-66
2023/01/11 10:59:34;;;;;;;26.33;12.90;;;9.40;99.90;;;;;;5015513;28;20181;-66
2023/01/11 11:02:16;;;;;;;24.17;13.13;;;9.30;99.90;;;;;;4999948;28;20287;-66
2023/01/11 11:05:12;;;;;;;33.20;15.00;;;9.30;99.90;;;;;;5000554;28;20165;-66
2023/01/11 11:08:10;;;;;;;24.87;12.73;;;9.30;99.90;;;;;;4998716;28;20254;-66
2023/01/11 11:10:49;;;;;;;27.77;11.27;;;9.40;99.90;;;;;;4996148;28;20193;-66
2023/01/11 11:13:41;;;;;;;35.37;11.80;;;9.40;99.90;;;;;;4995360;28;20180;-66
2023/01/11 11:16:36;;;;;;;21.80;10.97;;;9.40;99.90;;;;;;4995579;28;20262;-65
2023/01/11 11:19:02;;;;;;;24.53;10.93;;;9.40;99.90;;;;;;4997098;28;20169;-66
2023/01/11 11:21:35;;;;;;;19.07;11.13;;;9.40;99.90;;;;;;5011815;28;20200;-66
2023/01/11 11:24:08;;;;;;;21.60;9.03;;;9.40;99.90;;;;;;4995467;28;20177;-66
2023/01/11 11:26:40;;;;;;;24.47;8.83;;;9.40;99.90;;;;;;4997053;28;20169;-66
2023/01/11 11:29:18;;;;;;;17.80;7.83;;;9.40;99.90;;;;;;4995236;28;20554;-65
2023/01/11 11:31:45;;;;;;;18.30;8.30;;;9.40;99.90;;;;;;4996521;28;20200;-65
2023/01/11 11:34:16;;;;;;;19.80;7.83;;;9.40;99.90;;;;;;4996730;28;20207;-66
2023/01/11 11:36:47;;;;;;;18.87;7.80;;;9.50;99.90;;;;;;4996498;28;20228;-65
2023/01/11 11:39:21;;;;;;;15.43;7.43;;;9.40;99.90;;;;;;4996304;28;20184;-66
2023/01/11 11:41:49;;;;;;;19.80;8.10;;;9.40;99.90;;;;;;4996415;28;20197;-66
2023/01/11 11:44:18;;;;;;;11.17;5.87;;;9.40;99.90;;;;;;4996009;28;20188;-66
2023/01/11 11:47:05;;;;;;;18.43;6.77;;;9.40;99.90;;;;;;4996330;28;20187;-66
2023/01/11 11:49:35;;;;;;;12.53;6.00;;;9.40;99.90;;;;;;4994963;28;20621;-66
2023/01/11 11:52:03;;;;;;;17.73;6.43;;;9.40;99.90;;;;;;4994855;28;20204;-66
2023/01/11 11:54:32;;;;;;;17.43;7.83;;;9.40;99.90;;;;;;4996237;28;20172;-66
2023/01/11 11:57:11;;;;;;;18.97;7.23;;;9.40;99.90;;;;;;5011379;28;20177;-66
2023/01/11 11:59:36;;;;;;;15.97;6.87;;;9.40;99.90;;;;;;4995934;28;20223;-65
2023/01/11 12:02:04;;;;;;;24.43;7.67;;;9.50;99.90;;;;;;4995962;28;20212;-66
2023/01/11 12:04:46;;;;;;;16.77;6.90;;;9.50;99.90;;;;;;4996132;28;20169;-66
2023/01/11 12:07:18;;;;;;;19.13;7.23;;;9.50;99.90;;;;;;4995874;28;20601;-65
2023/01/11 12:09:55;;;;;;;16.30;7.43;;;9.60;99.90;;;;;;4994874;28;20180;-65
2023/01/11 12:12:21;;;;;;;19.13;7.80;;;9.80;99.90;;;;;;4995937;28;20657;-66
2023/01/11 12:15:13;;;;;;;19.27;6.80;;;10.10;99.90;;;;;;5010714;28;20239;-66
2023/01/11 12:17:39;;;;;;;15.27;6.90;;;10.30;99.90;;;;;;4987767;28;20192;-66
2023/01/11 12:20:30;;;;;;;15.40;6.33;;;10.40;99.90;;;;;;4993669;28;20314;-66
2023/01/11 12:23:23;;;;;;;14.37;6.33;;;10.30;99.90;;;;;;4995812;28;20192;-65
2023/01/11 12:25:55;;;;;;;13.23;6.37;;;10.20;99.90;;;;;;4995666;28;20561;-65
2023/01/11 12:28:51;;;;;;;16.43;6.37;;;10.30;99.90;;;;;;4995341;28;20275;-66
2023/01/11 12:31:32;;;;;;;17.73;6.67;;;10.20;99.90;;;;;;5010613;28;20564;-65
2023/01/11 12:34:12;;;;;;;12.80;6.60;;;10.20;99.90;;;;;;4995695;28;20164;-66
2023/01/11 12:36:51;;;;;;;12.30;5.97;;;10.10;99.90;;;;;;4996348;28;20546;-65
2023/01/11 12:39:33;;;;;;;14.37;6.50;;;9.90;99.90;;;;;;4995902;28;20252;-66
2023/01/11 12:42:26;;;;;;;10.60;5.93;;;9.80;99.90;;;;;;4995882;28;20239;-64
2023/01/11 12:45:16;;;;;;;14.87;5.77;;;9.70;99.90;;;;;;4995682;28;20200;-64
2023/01/11 12:47:59;;;;;;;13.30;5.83;;;9.70;99.90;;;;;;4995740;28;20200;-64
2023/01/11 12:50:43;;;;;;;10.97;5.63;;;9.70;99.90;;;;;;4996341;28;20168;-65
2023/01/11 12:53:22;;;;;;;11.57;6.10;;;9.70;99.90;;;;;;4995959;28;20537;-67
2023/01/11 12:56:32;;;;;;;11.07;6.10;;;9.80;99.90;;;;;;4995458;28;20323;-66
2023/01/11 12:59:01;;;;;;;12.47;5.67;;;9.70;99.90;;;;;;4942335;28;20695;-66
2023/01/11 13:01:44;;;;;;;11.17;5.90;;;9.70;99.90;;;;;;5010340;28;20224;-66
2023/01/11 13:04:21;;;;;;;13.30;6.27;;;9.60;99.90;;;;;;4995468;28;20629;-66
2023/01/11 13:06:59;;;;;;;15.07;6.50;;;9.60;99.90;;;;;;4995833;28;20191;-67
2023/01/11 13:09:49;;;;;;;16.10;6.40;;;9.60;99.90;;;;;;4995758;28;20172;-66
2023/01/11 13:12:35;;;;;;;13.47;6.40;;;9.60;99.90;;;;;;4996157;28;20326;-66
2023/01/11 13:15:15;;;;;;;15.50;6.57;;;9.60;99.90;;;;;;5010155;28;20775;-66
2023/01/11 13:17:49;;;;;;;9.90;6.30;;;9.70;99.90;;;;;;4995304;28;20161;-66
2023/01/11 13:20:28;;;;;;;13.70;6.50;;;9.70;99.90;;;;;;4995072;28;20240;-66
2023/01/11 13:23:31;;;;;;;15.30;6.97;;;9.80;99.90;;;;;;4995105;28;20603;-66
2023/01/11 13:26:08;;;;;;;14.53;7.37;;;10.00;99.90;;;;;;4985930;28;20231;-66
2023/01/11 13:28:39;;;;;;;10.80;6.77;;;10.20;99.90;;;;;;4995450;28;20203;-66
2023/01/11 13:31:09;;;;;;;16.40;7.30;;;10.30;99.90;;;;;;4995182;28;20204;-66
2023/01/11 13:33:39;;;;;;;14.50;6.83;;;10.40;99.90;;;;;;4995240;28;20572;-66
2023/01/11 13:36:18;;;;;;;14.73;6.40;;;10.40;99.90;;;;;;4995191;28;20218;-66
2023/01/11 13:38:52;;;;;;;13.17;5.53;;;10.30;99.90;;;;;;4994669;28;20184;-66
2023/01/11 13:41:29;;;;;;;10.70;5.67;;;10.40;99.90;;;;;;4994726;28;20194;-66
2023/01/11 13:44:12;;;;;;;17.17;5.77;;;10.20;99.90;;;;;;4994644;28;20196;-65
2023/01/11 13:47:09;;;;;;;14.27;5.50;;;10.20;99.90;;;;;;4995016;28;20315;-66
2023/01/11 13:49:35;;;;;;;13.30;5.53;;;10.30;99.90;;;;;;4994597;28;20207;-66
2023/01/11 13:52:26;;;;;;;13.73;6.28;;;10.40;99.90;;;;;;5009633;28;20708;-66
2023/01/11 13:55:10;;;;;;;13.50;5.77;;;10.50;99.90;;;;;;5009582;28;20212;-66
2023/01/11 13:57:55;;;;;;;11.40;4.90;;;10.50;99.90;;;;;;4994651;28;20283;-66